sensor_id;sensor_type;location;lat;lon;timestamp;P1;durP1;ratioP1;P2;durP2;ratioP2
77449;SDS011;66536;53.150;18.172;2024-02-28T00:01:07;45.90;;;17.10;;
77449;SDS011;66536;53.150;18.172;2024-02-28T00:03:43;50.20;;;17.70;;
77449;SDS011;66536;53.150;18.172;2024-02-28T00:06:10;50.00;;;18.60;;
77449;SDS011;66536;53.150;18.172;2024-02-28T00:08:36;51.40;;;20.30;;
77449;SDS011;66536;53.150;18.172;2024-02-28T00:11:02;46.80;;;18.40;;
77449;SDS011;66536;53.150;18.172;2024-02-28T00:13:28;46.30;;;17.40;;
77449;SDS011;66536;53.150;18.172;2024-02-28T00:15:54;42.70;;;16.80;;
77449;SDS011;66536;53.150;18.172;2024-02-28T00:18:20;50.40;;;17.70;;
77449;SDS011;66536;53.150;18.172;2024-02-28T00:20:46;43.40;;;15.90;;
77449;SDS011;66536;53.150;18.172;2024-02-28T00:23:12;39.00;;;15.60;;
77449;SDS011;66536;53.150;18.172;2024-02-28T00:25:38;42.00;;;15.30;;
77449;SDS011;66536;53.150;18.172;2024-02-28T00:28:04;48.20;;;17.30;;
77449;SDS011;66536;53.150;18.172;2024-02-28T00:30:30;46.20;;;17.90;;
77449;SDS011;66536;53.150;18.172;2024-02-28T00:32:59;48.50;;;16.50;;
77449;SDS011;66536;53.150;18.172;2024-02-28T00:35:25;42.10;;;15.10;;
77449;SDS011;66536;53.150;18.172;2024-02-28T00:37:51;51.40;;;18.10;;
77449;SDS011;66536;53.150;18.172;2024-02-28T00:40:17;48.60;;;16.80;;
77449;SDS011;66536;53.150;18.172;2024-02-28T00:42:43;47.30;;;16.20;;
77449;SDS011;66536;53.150;18.172;2024-02-28T00:45:10;52.30;;;17.10;;
77449;SDS011;66536;53.150;18.172;2024-02-28T00:47:36;44.60;;;16.10;;
77449;SDS011;66536;53.150;18.172;2024-02-28T00:50:05;48.80;;;16.90;;
77449;SDS011;66536;53.150;18.172;2024-02-28T00:52:32;41.00;;;15.00;;
77449;SDS011;66536;53.150;18.172;2024-02-28T00:54:58;60.50;;;21.50;;
77449;SDS011;66536;53.150;18.172;2024-02-28T00:57:24;48.60;;;19.00;;
77449;SDS011;66536;53.150;18.172;2024-02-28T00:59:50;48.40;;;18.50;;
77449;SDS011;66536;53.150;18.172;2024-02-28T01:02:16;55.20;;;18.80;;
77449;SDS011;66536;53.150;18.172;2024-02-28T01:04:42;47.80;;;16.60;;
77449;SDS011;66536;53.150;18.172;2024-02-28T01:07:08;47.40;;;17.10;;
77449;SDS011;66536;53.150;18.172;2024-02-28T01:09:34;39.10;;;14.20;;
77449;SDS011;66536;53.150;18.172;2024-02-28T01:12:00;45.80;;;16.00;;
77449;SDS011;66536;53.150;18.172;2024-02-28T01:14:26;48.90;;;17.40;;
77449;SDS011;66536;53.150;18.172;2024-02-28T01:16:52;47.70;;;16.00;;
77449;SDS011;66536;53.150;18.172;2024-02-28T01:19:18;49.90;;;16.00;;
77449;SDS011;66536;53.150;18.172;2024-02-28T01:21:44;58.00;;;16.80;;
77449;SDS011;66536;53.150;18.172;2024-02-28T01:24:10;50.90;;;15.60;;
77449;SDS011;66536;53.150;18.172;2024-02-28T01:26:37;44.60;;;14.50;;
77449;SDS011;66536;53.150;18.172;2024-02-28T01:29:03;54.80;;;15.60;;
77449;SDS011;66536;53.150;18.172;2024-02-28T01:31:29;43.70;;;14.50;;
77449;SDS011;66536;53.150;18.172;2024-02-28T01:33:55;44.20;;;14.10;;
77449;SDS011;66536;53.150;18.172;2024-02-28T01:36:21;44.10;;;15.00;;
77449;SDS011;66536;53.150;18.172;2024-02-28T01:38:47;45.10;;;15.10;;
77449;SDS011;66536;53.150;18.172;2024-02-28T01:41:13;44.40;;;15.40;;
77449;SDS011;66536;53.150;18.172;2024-02-28T01:43:39;42.10;;;15.80;;
77449;SDS011;66536;53.150;18.172;2024-02-28T01:46:07;36.50;;;14.20;;
77449;SDS011;66536;53.150;18.172;2024-02-28T01:48:55;40.10;;;14.90;;
77449;SDS011;66536;53.150;18.172;2024-02-28T01:51:24;39.80;;;13.70;;
77449;SDS011;66536;53.150;18.172;2024-02-28T01:53:52;41.70;;;15.60;;
77449;SDS011;66536;53.150;18.172;2024-02-28T01:56:20;39.20;;;14.10;;
77449;SDS011;66536;53.150;18.172;2024-02-28T01:58:49;40.10;;;13.30;;
77449;SDS011;66536;53.150;18.172;2024-02-28T02:01:15;35.50;;;13.10;;
77449;SDS011;66536;53.150;18.172;2024-02-28T02:03:44;38.50;;;13.10;;
77449;SDS011;66536;53.150;18.172;2024-02-28T02:06:11;37.00;;;13.70;;
77449;SDS011;66536;53.150;18.172;2024-02-28T02:08:37;33.10;;;13.00;;
77449;SDS011;66536;53.150;18.172;2024-02-28T02:11:04;38.40;;;13.00;;
77449;SDS011;66536;53.150;18.172;2024-02-28T02:13:32;36.30;;;12.50;;
77449;SDS011;66536;53.150;18.172;2024-02-28T02:15:58;37.80;;;13.00;;
77449;SDS011;66536;53.150;18.172;2024-02-28T02:18:24;36.40;;;12.80;;
77449;SDS011;66536;53.150;18.172;2024-02-28T02:20:50;40.30;;;12.60;;
77449;SDS011;66536;53.150;18.172;2024-02-28T02:23:23;43.40;;;14.50;;
77449;SDS011;66536;53.150;18.172;2024-02-28T02:25:49;46.00;;;14.80;;
77449;SDS011;66536;53.150;18.172;2024-02-28T02:28:15;47.10;;;14.50;;
77449;SDS011;66536;53.150;18.172;2024-02-28T02:30:41;41.80;;;13.20;;
77449;SDS011;66536;53.150;18.172;2024-02-28T02:33:08;50.80;;;16.50;;
77449;SDS011;66536;53.150;18.172;2024-02-28T02:35:34;55.60;;;17.00;;
77449;SDS011;66536;53.150;18.172;2024-02-28T02:38:00;50.30;;;15.30;;
77449;SDS011;66536;53.150;18.172;2024-02-28T02:40:26;49.70;;;15.90;;
77449;SDS011;66536;53.150;18.172;2024-02-28T02:42:53;47.40;;;15.50;;
77449;SDS011;66536;53.150;18.172;2024-02-28T02:45:19;42.80;;;13.30;;
77449;SDS011;66536;53.150;18.172;2024-02-28T02:47:46;45.50;;;14.80;;
77449;SDS011;66536;53.150;18.172;2024-02-28T02:50:12;41.30;;;14.20;;
77449;SDS011;66536;53.150;18.172;2024-02-28T02:52:38;52.10;;;14.40;;
77449;SDS011;66536;53.150;18.172;2024-02-28T02:55:04;54.70;;;14.60;;
77449;SDS011;66536;53.150;18.172;2024-02-28T02:57:31;56.30;;;16.20;;
77449;SDS011;66536;53.150;18.172;2024-02-28T02:59:58;48.50;;;15.20;;
77449;SDS011;66536;53.150;18.172;2024-02-28T03:02:24;59.10;;;18.20;;
77449;SDS011;66536;53.150;18.172;2024-02-28T03:04:50;58.00;;;18.40;;
77449;SDS011;66536;53.150;18.172;2024-02-28T03:07:16;64.40;;;19.10;;
77449;SDS011;66536;53.150;18.172;2024-02-28T03:09:42;58.80;;;17.80;;
77449;SDS011;66536;53.150;18.172;2024-02-28T03:12:08;58.60;;;17.00;;
77449;SDS011;66536;53.150;18.172;2024-02-28T03:14:35;57.80;;;17.10;;
77449;SDS011;66536;53.150;18.172;2024-02-28T03:17:01;67.30;;;16.70;;
77449;SDS011;66536;53.150;18.172;2024-02-28T03:19:27;55.90;;;16.00;;
77449;SDS011;66536;53.150;18.172;2024-02-28T03:21:53;55.30;;;17.10;;
77449;SDS011;66536;53.150;18.172;2024-02-28T03:24:19;59.70;;;17.80;;
77449;SDS011;66536;53.150;18.172;2024-02-28T03:26:45;50.00;;;17.00;;
77449;SDS011;66536;53.150;18.172;2024-02-28T03:29:12;58.40;;;17.80;;
77449;SDS011;66536;53.150;18.172;2024-02-28T03:31:38;58.00;;;17.00;;
77449;SDS011;66536;53.150;18.172;2024-02-28T03:34:05;49.10;;;17.10;;
77449;SDS011;66536;53.150;18.172;2024-02-28T03:36:31;56.10;;;17.60;;
77449;SDS011;66536;53.150;18.172;2024-02-28T03:38:57;57.20;;;17.50;;
77449;SDS011;66536;53.150;18.172;2024-02-28T03:41:23;58.60;;;16.90;;
77449;SDS011;66536;53.150;18.172;2024-02-28T03:43:49;46.50;;;16.60;;
77449;SDS011;66536;53.150;18.172;2024-02-28T03:46:15;51.10;;;17.10;;
77449;SDS011;66536;53.150;18.172;2024-02-28T03:48:41;47.10;;;16.30;;
77449;SDS011;66536;53.150;18.172;2024-02-28T03:51:07;44.20;;;15.60;;
77449;SDS011;66536;53.150;18.172;2024-02-28T03:53:33;53.10;;;17.50;;
77449;SDS011;66536;53.150;18.172;2024-02-28T03:55:59;47.70;;;15.60;;
77449;SDS011;66536;53.150;18.172;2024-02-28T03:58:25;47.60;;;15.40;;
77449;SDS011;66536;53.150;18.172;2024-02-28T04:00:51;47.50;;;15.70;;
77449;SDS011;66536;53.150;18.172;2024-02-28T04:03:17;35.80;;;13.60;;
77449;SDS011;66536;53.150;18.172;2024-02-28T04:05:43;42.20;;;14.00;;
77449;SDS011;66536;53.150;18.172;2024-02-28T04:08:09;45.30;;;15.90;;
77449;SDS011;66536;53.150;18.172;2024-02-28T04:10:36;42.80;;;15.10;;
77449;SDS011;66536;53.150;18.172;2024-02-28T04:13:02;40.10;;;14.30;;
77449;SDS011;66536;53.150;18.172;2024-02-28T04:15:30;42.90;;;14.90;;
77449;SDS011;66536;53.150;18.172;2024-02-28T04:17:56;42.40;;;14.10;;
77449;SDS011;66536;53.150;18.172;2024-02-28T04:20:22;49.20;;;16.40;;
77449;SDS011;66536;53.150;18.172;2024-02-28T04:22:48;54.50;;;17.40;;
77449;SDS011;66536;53.150;18.172;2024-02-28T04:25:14;51.40;;;15.90;;
77449;SDS011;66536;53.150;18.172;2024-02-28T04:27:41;62.00;;;16.50;;
77449;SDS011;66536;53.150;18.172;2024-02-28T04:30:07;60.90;;;18.10;;
77449;SDS011;66536;53.150;18.172;2024-02-28T04:32:35;52.60;;;15.90;;
77449;SDS011;66536;53.150;18.172;2024-02-28T04:35:01;57.80;;;16.00;;
77449;SDS011;66536;53.150;18.172;2024-02-28T04:37:28;55.20;;;15.30;;
77449;SDS011;66536;53.150;18.172;2024-02-28T04:39:54;49.80;;;15.60;;
77449;SDS011;66536;53.150;18.172;2024-02-28T04:42:20;53.40;;;15.10;;
77449;SDS011;66536;53.150;18.172;2024-02-28T04:44:47;51.50;;;15.90;;
77449;SDS011;66536;53.150;18.172;2024-02-28T04:47:13;55.90;;;17.50;;
77449;SDS011;66536;53.150;18.172;2024-02-28T04:49:39;50.40;;;16.10;;
77449;SDS011;66536;53.150;18.172;2024-02-28T04:52:05;48.50;;;15.60;;
77449;SDS011;66536;53.150;18.172;2024-02-28T04:54:32;41.30;;;13.80;;
77449;SDS011;66536;53.150;18.172;2024-02-28T04:56:59;32.70;;;11.30;;
77449;SDS011;66536;53.150;18.172;2024-02-28T04:59:25;31.70;;;11.90;;
77449;SDS011;66536;53.150;18.172;2024-02-28T05:01:51;41.30;;;14.10;;
77449;SDS011;66536;53.150;18.172;2024-02-28T05:04:18;39.00;;;13.50;;
77449;SDS011;66536;53.150;18.172;2024-02-28T05:06:44;44.70;;;16.80;;
77449;SDS011;66536;53.150;18.172;2024-02-28T05:09:11;40.20;;;13.70;;
77449;SDS011;66536;53.150;18.172;2024-02-28T05:11:37;49.00;;;14.80;;
77449;SDS011;66536;53.150;18.172;2024-02-28T05:14:03;48.80;;;15.00;;
77449;SDS011;66536;53.150;18.172;2024-02-28T05:16:29;55.00;;;17.00;;
77449;SDS011;66536;53.150;18.172;2024-02-28T05:18:55;50.60;;;15.30;;
77449;SDS011;66536;53.150;18.172;2024-02-28T05:21:21;42.10;;;13.90;;
77449;SDS011;66536;53.150;18.172;2024-02-28T05:23:47;43.40;;;14.00;;
77449;SDS011;66536;53.150;18.172;2024-02-28T05:26:13;52.80;;;16.00;;
77449;SDS011;66536;53.150;18.172;2024-02-28T05:28:40;59.00;;;17.30;;
77449;SDS011;66536;53.150;18.172;2024-02-28T05:33:50;54.70;;;16.10;;
77449;SDS011;66536;53.150;18.172;2024-02-28T05:36:17;55.40;;;16.30;;
77449;SDS011;66536;53.150;18.172;2024-02-28T05:38:44;45.10;;;14.60;;
77449;SDS011;66536;53.150;18.172;2024-02-28T05:41:10;36.20;;;13.90;;
77449;SDS011;66536;53.150;18.172;2024-02-28T05:43:37;41.60;;;14.50;;
77449;SDS011;66536;53.150;18.172;2024-02-28T05:46:04;40.30;;;13.80;;
77449;SDS011;66536;53.150;18.172;2024-02-28T05:48:30;44.20;;;15.80;;
77449;SDS011;66536;53.150;18.172;2024-02-28T05:50:56;40.60;;;13.40;;
77449;SDS011;66536;53.150;18.172;2024-02-28T05:53:22;39.60;;;14.80;;
77449;SDS011;66536;53.150;18.172;2024-02-28T05:55:53;43.70;;;16.80;;
77449;SDS011;66536;53.150;18.172;2024-02-28T05:58:22;42.20;;;15.80;;
77449;SDS011;66536;53.150;18.172;2024-02-28T06:00:49;58.60;;;20.90;;
77449;SDS011;66536;53.150;18.172;2024-02-28T06:03:15;34.40;;;12.90;;
77449;SDS011;66536;53.150;18.172;2024-02-28T06:05:41;32.50;;;12.10;;
77449;SDS011;66536;53.150;18.172;2024-02-28T06:08:09;34.20;;;12.10;;
77449;SDS011;66536;53.150;18.172;2024-02-28T06:10:36;38.30;;;14.00;;
77449;SDS011;66536;53.150;18.172;2024-02-28T06:13:02;35.60;;;14.40;;
77449;SDS011;66536;53.150;18.172;2024-02-28T06:15:28;55.10;;;23.10;;
77449;SDS011;66536;53.150;18.172;2024-02-28T06:17:57;30.40;;;13.10;;
77449;SDS011;66536;53.150;18.172;2024-02-28T06:20:26;36.70;;;14.10;;
77449;SDS011;66536;53.150;18.172;2024-02-28T06:22:53;96.80;;;38.60;;
77449;SDS011;66536;53.150;18.172;2024-02-28T06:25:19;56.10;;;24.50;;
77449;SDS011;66536;53.150;18.172;2024-02-28T06:27:48;127.50;;;51.10;;
77449;SDS011;66536;53.150;18.172;2024-02-28T06:30:14;94.10;;;36.80;;
77449;SDS011;66536;53.150;18.172;2024-02-28T06:32:42;88.00;;;26.10;;
77449;SDS011;66536;53.150;18.172;2024-02-28T06:35:08;51.40;;;16.80;;
77449;SDS011;66536;53.150;18.172;2024-02-28T06:37:35;92.10;;;22.50;;
77449;SDS011;66536;53.150;18.172;2024-02-28T06:40:02;99.50;;;24.10;;
77449;SDS011;66536;53.150;18.172;2024-02-28T06:42:31;49.60;;;15.80;;
77449;SDS011;66536;53.150;18.172;2024-02-28T06:44:59;48.40;;;15.30;;
77449;SDS011;66536;53.150;18.172;2024-02-28T06:47:25;98.40;;;23.20;;
77449;SDS011;66536;53.150;18.172;2024-02-28T06:49:53;74.50;;;18.40;;
77449;SDS011;66536;53.150;18.172;2024-02-28T06:52:20;62.90;;;17.50;;
77449;SDS011;66536;53.150;18.172;2024-02-28T06:54:47;80.00;;;21.10;;
77449;SDS011;66536;53.150;18.172;2024-02-28T06:57:13;58.50;;;18.70;;
77449;SDS011;66536;53.150;18.172;2024-02-28T06:59:39;65.80;;;17.70;;
77449;SDS011;66536;53.150;18.172;2024-02-28T07:02:05;55.40;;;16.30;;
77449;SDS011;66536;53.150;18.172;2024-02-28T07:04:31;59.10;;;17.50;;
77449;SDS011;66536;53.150;18.172;2024-02-28T07:06:57;59.50;;;17.60;;
77449;SDS011;66536;53.150;18.172;2024-02-28T07:09:24;48.70;;;15.00;;
77449;SDS011;66536;53.150;18.172;2024-02-28T07:11:55;43.70;;;13.30;;
77449;SDS011;66536;53.150;18.172;2024-02-28T07:14:21;37.50;;;12.30;;
77449;SDS011;66536;53.150;18.172;2024-02-28T07:16:47;48.90;;;15.40;;
77449;SDS011;66536;53.150;18.172;2024-02-28T07:19:13;42.80;;;15.30;;
77449;SDS011;66536;53.150;18.172;2024-02-28T07:21:40;39.70;;;14.40;;
77449;SDS011;66536;53.150;18.172;2024-02-28T07:24:06;41.80;;;13.80;;
77449;SDS011;66536;53.150;18.172;2024-02-28T07:26:33;35.90;;;13.50;;
77449;SDS011;66536;53.150;18.172;2024-02-28T07:28:59;40.30;;;14.20;;
77449;SDS011;66536;53.150;18.172;2024-02-28T07:31:26;34.90;;;13.20;;
77449;SDS011;66536;53.150;18.172;2024-02-28T07:33:52;46.20;;;15.50;;
77449;SDS011;66536;53.150;18.172;2024-02-28T07:36:19;38.20;;;12.80;;
77449;SDS011;66536;53.150;18.172;2024-02-28T07:38:45;39.20;;;13.30;;
77449;SDS011;66536;53.150;18.172;2024-02-28T07:41:11;40.50;;;14.20;;
77449;SDS011;66536;53.150;18.172;2024-02-28T07:43:37;40.10;;;14.50;;
77449;SDS011;66536;53.150;18.172;2024-02-28T07:46:08;40.70;;;14.10;;
77449;SDS011;66536;53.150;18.172;2024-02-28T07:48:37;38.30;;;15.10;;
77449;SDS011;66536;53.150;18.172;2024-02-28T07:51:04;44.90;;;14.70;;
77449;SDS011;66536;53.150;18.172;2024-02-28T07:53:31;41.40;;;14.40;;
77449;SDS011;66536;53.150;18.172;2024-02-28T07:55:57;36.80;;;14.10;;
77449;SDS011;66536;53.150;18.172;2024-02-28T07:58:23;47.80;;;14.60;;
77449;SDS011;66536;53.150;18.172;2024-02-28T08:00:50;47.10;;;15.50;;
77449;SDS011;66536;53.150;18.172;2024-02-28T08:03:18;48.40;;;15.00;;
77449;SDS011;66536;53.150;18.172;2024-02-28T08:05:44;44.40;;;15.70;;
77449;SDS011;66536;53.150;18.172;2024-02-28T08:08:11;46.30;;;15.80;;
77449;SDS011;66536;53.150;18.172;2024-02-28T08:10:38;42.50;;;15.40;;
77449;SDS011;66536;53.150;18.172;2024-02-28T08:13:04;44.60;;;16.10;;
77449;SDS011;66536;53.150;18.172;2024-02-28T08:15:31;46.50;;;17.10;;
77449;SDS011;66536;53.150;18.172;2024-02-28T08:17:59;39.80;;;13.90;;
77449;SDS011;66536;53.150;18.172;2024-02-28T08:20:29;31.50;;;12.50;;
77449;SDS011;66536;53.150;18.172;2024-02-28T08:22:55;39.40;;;14.50;;
77449;SDS011;66536;53.150;18.172;2024-02-28T08:25:22;40.20;;;15.50;;
77449;SDS011;66536;53.150;18.172;2024-02-28T08:27:50;42.40;;;15.90;;
77449;SDS011;66536;53.150;18.172;2024-02-28T08:30:16;39.80;;;15.80;;
77449;SDS011;66536;53.150;18.172;2024-02-28T08:32:42;37.50;;;15.00;;
77449;SDS011;66536;53.150;18.172;2024-02-28T08:35:13;38.40;;;15.70;;
77449;SDS011;66536;53.150;18.172;2024-02-28T08:37:40;38.60;;;14.50;;
77449;SDS011;66536;53.150;18.172;2024-02-28T08:40:06;37.00;;;14.30;;
77449;SDS011;66536;53.150;18.172;2024-02-28T08:42:34;29.40;;;12.30;;
77449;SDS011;66536;53.150;18.172;2024-02-28T08:45:01;36.90;;;14.40;;
77449;SDS011;66536;53.150;18.172;2024-02-28T08:47:30;36.10;;;14.90;;
77449;SDS011;66536;53.150;18.172;2024-02-28T08:49:56;31.10;;;12.90;;
77449;SDS011;66536;53.150;18.172;2024-02-28T08:52:27;35.80;;;14.40;;
77449;SDS011;66536;53.150;18.172;2024-02-28T08:54:56;38.40;;;15.70;;
77449;SDS011;66536;53.150;18.172;2024-02-28T08:57:22;31.20;;;13.40;;
77449;SDS011;66536;53.150;18.172;2024-02-28T08:59:50;28.70;;;12.90;;
77449;SDS011;66536;53.150;18.172;2024-02-28T09:02:17;39.90;;;20.00;;
77449;SDS011;66536;53.150;18.172;2024-02-28T09:04:45;28.40;;;13.60;;
77449;SDS011;66536;53.150;18.172;2024-02-28T09:07:12;29.40;;;11.90;;
77449;SDS011;66536;53.150;18.172;2024-02-28T09:09:41;27.30;;;12.60;;
77449;SDS011;66536;53.150;18.172;2024-02-28T09:12:07;28.30;;;11.70;;
77449;SDS011;66536;53.150;18.172;2024-02-28T09:14:35;26.40;;;11.60;;
77449;SDS011;66536;53.150;18.172;2024-02-28T09:17:01;34.60;;;16.40;;
77449;SDS011;66536;53.150;18.172;2024-02-28T09:19:32;32.60;;;15.60;;
77449;SDS011;66536;53.150;18.172;2024-02-28T09:21:58;33.70;;;14.00;;
77449;SDS011;66536;53.150;18.172;2024-02-28T09:24:24;34.20;;;15.20;;
77449;SDS011;66536;53.150;18.172;2024-02-28T09:26:51;40.70;;;19.10;;
77449;SDS011;66536;53.150;18.172;2024-02-28T09:29:17;32.80;;;14.70;;
77449;SDS011;66536;53.150;18.172;2024-02-28T09:31:44;34.00;;;14.40;;
77449;SDS011;66536;53.150;18.172;2024-02-28T09:34:11;32.10;;;14.30;;
77449;SDS011;66536;53.150;18.172;2024-02-28T09:36:41;40.30;;;16.40;;
77449;SDS011;66536;53.150;18.172;2024-02-28T09:39:09;31.50;;;13.60;;
77449;SDS011;66536;53.150;18.172;2024-02-28T09:41:37;29.50;;;13.30;;
77449;SDS011;66536;53.150;18.172;2024-02-28T09:44:06;30.40;;;13.60;;
77449;SDS011;66536;53.150;18.172;2024-02-28T09:46:33;31.50;;;13.80;;
77449;SDS011;66536;53.150;18.172;2024-02-28T09:49:03;47.20;;;21.20;;
77449;SDS011;66536;53.150;18.172;2024-02-28T09:51:34;38.20;;;16.50;;
77449;SDS011;66536;53.150;18.172;2024-02-28T09:54:02;34.00;;;14.10;;
77449;SDS011;66536;53.150;18.172;2024-02-28T09:56:29;26.10;;;11.60;;
77449;SDS011;66536;53.150;18.172;2024-02-28T09:58:56;26.10;;;11.80;;
77449;SDS011;66536;53.150;18.172;2024-02-28T10:01:23;21.70;;;10.70;;
77449;SDS011;66536;53.150;18.172;2024-02-28T10:03:51;18.70;;;10.20;;
77449;SDS011;66536;53.150;18.172;2024-02-28T10:06:19;21.60;;;10.90;;
77449;SDS011;66536;53.150;18.172;2024-02-28T10:08:46;24.40;;;12.20;;
77449;SDS011;66536;53.150;18.172;2024-02-28T10:13:50;22.60;;;10.10;;
77449;SDS011;66536;53.150;18.172;2024-02-28T10:16:18;22.20;;;10.50;;
77449;SDS011;66536;53.150;18.172;2024-02-28T10:18:44;24.70;;;11.40;;
77449;SDS011;66536;53.150;18.172;2024-02-28T10:21:13;20.10;;;11.00;;
77449;SDS011;66536;53.150;18.172;2024-02-28T10:23:41;24.70;;;10.60;;
77449;SDS011;66536;53.150;18.172;2024-02-28T10:26:09;19.90;;;9.80;;
77449;SDS011;66536;53.150;18.172;2024-02-28T10:28:36;19.60;;;9.40;;
77449;SDS011;66536;53.150;18.172;2024-02-28T10:31:05;19.20;;;9.30;;
77449;SDS011;66536;53.150;18.172;2024-02-28T10:33:32;24.90;;;11.70;;
77449;SDS011;66536;53.150;18.172;2024-02-28T10:36:06;28.20;;;14.10;;
77449;SDS011;66536;53.150;18.172;2024-02-28T10:38:32;33.50;;;15.20;;
77449;SDS011;66536;53.150;18.172;2024-02-28T10:41:01;20.50;;;9.70;;
77449;SDS011;66536;53.150;18.172;2024-02-28T10:43:28;21.80;;;11.20;;
77449;SDS011;66536;53.150;18.172;2024-02-28T10:45:57;22.50;;;10.90;;
77449;SDS011;66536;53.150;18.172;2024-02-28T10:48:25;27.50;;;11.40;;
77449;SDS011;66536;53.150;18.172;2024-02-28T10:50:53;26.10;;;11.50;;
77449;SDS011;66536;53.150;18.172;2024-02-28T10:53:29;37.70;;;15.00;;
77449;SDS011;66536;53.150;18.172;2024-02-28T10:56:02;30.50;;;12.80;;
77449;SDS011;66536;53.150;18.172;2024-02-28T10:58:32;37.40;;;15.10;;
77449;SDS011;66536;53.150;18.172;2024-02-28T11:01:03;30.40;;;13.60;;
77449;SDS011;66536;53.150;18.172;2024-02-28T11:03:31;23.70;;;10.20;;
77449;SDS011;66536;53.150;18.172;2024-02-28T11:05:59;20.30;;;9.60;;
77449;SDS011;66536;53.150;18.172;2024-02-28T11:08:27;22.90;;;9.80;;
77449;SDS011;66536;53.150;18.172;2024-02-28T11:10:58;32.60;;;12.40;;
77449;SDS011;66536;53.150;18.172;2024-02-28T11:13:28;23.80;;;10.30;;
77449;SDS011;66536;53.150;18.172;2024-02-28T11:15:55;29.70;;;11.50;;
77449;SDS011;66536;53.150;18.172;2024-02-28T11:18:33;27.80;;;11.50;;
77449;SDS011;66536;53.150;18.172;2024-02-28T11:21:16;29.00;;;11.10;;
77449;SDS011;66536;53.150;18.172;2024-02-28T11:23:45;29.20;;;12.30;;
77449;SDS011;66536;53.150;18.172;2024-02-28T11:26:13;31.00;;;12.40;;
77449;SDS011;66536;53.150;18.172;2024-02-28T11:28:39;32.40;;;14.00;;
77449;SDS011;66536;53.150;18.172;2024-02-28T11:31:06;53.10;;;16.10;;
77449;SDS011;66536;53.150;18.172;2024-02-28T11:33:40;57.70;;;19.50;;
77449;SDS011;66536;53.150;18.172;2024-02-28T11:36:12;38.20;;;13.50;;
77449;SDS011;66536;53.150;18.172;2024-02-28T11:38:39;45.50;;;16.00;;
77449;SDS011;66536;53.150;18.172;2024-02-28T11:41:07;40.50;;;14.10;;
77449;SDS011;66536;53.150;18.172;2024-02-28T11:43:37;34.00;;;15.70;;
77449;SDS011;66536;53.150;18.172;2024-02-28T11:46:08;33.30;;;14.00;;
77449;SDS011;66536;53.150;18.172;2024-02-28T11:48:36;35.70;;;17.70;;
77449;SDS011;66536;53.150;18.172;2024-02-28T11:51:03;24.60;;;11.70;;
77449;SDS011;66536;53.150;18.172;2024-02-28T11:53:30;37.80;;;14.80;;
77449;SDS011;66536;53.150;18.172;2024-02-28T11:55:57;29.30;;;13.10;;
77449;SDS011;66536;53.150;18.172;2024-02-28T11:58:25;23.30;;;10.90;;
77449;SDS011;66536;53.150;18.172;2024-02-28T12:00:51;41.10;;;26.70;;
77449;SDS011;66536;53.150;18.172;2024-02-28T12:03:21;45.10;;;23.10;;
77449;SDS011;66536;53.150;18.172;2024-02-28T12:05:49;25.70;;;13.30;;
77449;SDS011;66536;53.150;18.172;2024-02-28T12:08:17;20.90;;;11.60;;
77449;SDS011;66536;53.150;18.172;2024-02-28T12:10:46;54.90;;;30.50;;
77449;SDS011;66536;53.150;18.172;2024-02-28T12:13:17;62.40;;;42.50;;
77449;SDS011;66536;53.150;18.172;2024-02-28T12:15:45;27.60;;;17.80;;
77449;SDS011;66536;53.150;18.172;2024-02-28T12:18:12;32.10;;;16.60;;
77449;SDS011;66536;53.150;18.172;2024-02-28T12:20:42;26.20;;;15.70;;
77449;SDS011;66536;53.150;18.172;2024-02-28T12:23:09;37.80;;;25.10;;
77449;SDS011;66536;53.150;18.172;2024-02-28T12:25:35;30.40;;;18.90;;
77449;SDS011;66536;53.150;18.172;2024-02-28T12:28:02;29.50;;;19.00;;
77449;SDS011;66536;53.150;18.172;2024-02-28T12:30:39;27.70;;;17.10;;
77449;SDS011;66536;53.150;18.172;2024-02-28T12:33:10;28.90;;;17.30;;
77449;SDS011;66536;53.150;18.172;2024-02-28T12:35:37;33.20;;;24.10;;
77449;SDS011;66536;53.150;18.172;2024-02-28T12:38:04;25.10;;;13.60;;
77449;SDS011;66536;53.150;18.172;2024-02-28T12:40:31;29.80;;;16.60;;
77449;SDS011;66536;53.150;18.172;2024-02-28T12:42:57;25.20;;;14.40;;
77449;SDS011;66536;53.150;18.172;2024-02-28T12:45:24;51.00;;;34.00;;
77449;SDS011;66536;53.150;18.172;2024-02-28T12:47:50;44.70;;;27.50;;
77449;SDS011;66536;53.150;18.172;2024-02-28T12:50:16;36.40;;;18.70;;
77449;SDS011;66536;53.150;18.172;2024-02-28T12:52:47;44.00;;;21.40;;
77449;SDS011;66536;53.150;18.172;2024-02-28T12:55:19;25.20;;;14.40;;
77449;SDS011;66536;53.150;18.172;2024-02-28T12:57:47;22.50;;;11.60;;
77449;SDS011;66536;53.150;18.172;2024-02-28T13:00:15;20.90;;;11.10;;
77449;SDS011;66536;53.150;18.172;2024-02-28T13:02:42;29.80;;;16.60;;
77449;SDS011;66536;53.150;18.172;2024-02-28T13:05:10;25.40;;;14.40;;
77449;SDS011;66536;53.150;18.172;2024-02-28T13:07:39;37.40;;;23.70;;
77449;SDS011;66536;53.150;18.172;2024-02-28T13:10:06;42.20;;;28.40;;
77449;SDS011;66536;53.150;18.172;2024-02-28T13:12:35;23.60;;;13.30;;
77449;SDS011;66536;53.150;18.172;2024-02-28T13:15:01;22.90;;;11.80;;
77449;SDS011;66536;53.150;18.172;2024-02-28T13:17:28;24.30;;;12.00;;
77449;SDS011;66536;53.150;18.172;2024-02-28T13:19:55;21.90;;;11.80;;
77449;SDS011;66536;53.150;18.172;2024-02-28T13:22:22;28.00;;;17.10;;
77449;SDS011;66536;53.150;18.172;2024-02-28T13:24:48;20.30;;;11.70;;
77449;SDS011;66536;53.150;18.172;2024-02-28T13:27:14;25.00;;;14.10;;
77449;SDS011;66536;53.150;18.172;2024-02-28T13:29:40;20.30;;;12.00;;
77449;SDS011;66536;53.150;18.172;2024-02-28T13:32:07;18.90;;;10.10;;
77449;SDS011;66536;53.150;18.172;2024-02-28T13:34:33;22.50;;;11.40;;
77449;SDS011;66536;53.150;18.172;2024-02-28T13:36:59;21.30;;;10.90;;
77449;SDS011;66536;53.150;18.172;2024-02-28T13:39:25;22.90;;;12.40;;
77449;SDS011;66536;53.150;18.172;2024-02-28T13:41:52;25.70;;;13.70;;
77449;SDS011;66536;53.150;18.172;2024-02-28T13:44:19;26.50;;;14.10;;
77449;SDS011;66536;53.150;18.172;2024-02-28T13:46:45;25.70;;;14.00;;
77449;SDS011;66536;53.150;18.172;2024-02-28T13:49:12;21.70;;;11.90;;
77449;SDS011;66536;53.150;18.172;2024-02-28T13:51:40;25.40;;;12.80;;
77449;SDS011;66536;53.150;18.172;2024-02-28T13:54:07;24.10;;;12.90;;
77449;SDS011;66536;53.150;18.172;2024-02-28T13:56:33;25.10;;;13.30;;
77449;SDS011;66536;53.150;18.172;2024-02-28T13:59:00;26.50;;;14.10;;
77449;SDS011;66536;53.150;18.172;2024-02-28T14:01:27;28.90;;;13.70;;
77449;SDS011;66536;53.150;18.172;2024-02-28T14:03:54;29.30;;;14.40;;
77449;SDS011;66536;53.150;18.172;2024-02-28T14:06:20;29.60;;;16.50;;
77449;SDS011;66536;53.150;18.172;2024-02-28T14:08:46;34.10;;;18.70;;
77449;SDS011;66536;53.150;18.172;2024-02-28T14:11:12;40.70;;;20.80;;
77449;SDS011;66536;53.150;18.172;2024-02-28T14:13:41;28.50;;;16.40;;